Time;durP1;ratioP1;P1;durP2;ratioP2;P2;SDS_P1;SDS_P2;PMS_P1;PMS_P2;Temp;Humidity;BMP_temperature;BMP_pressure;BME280_temperature;BME280_humidity;BME280_pressure;Samples;Min_cycle;Max_cycle;Signal;HPM_P1;HPM_P2
2021/06/10 00:01:07;;;;;;;3.67;2.57;;;18.90;1.00;;;;;;4992635;28;20245;-78
2021/06/10 00:03:34;;;;;;;2.43;2.20;;;18.80;1.00;;;;;;4998807;28;20217;-78
2021/06/10 00:06:01;;;;;;;6.77;2.30;;;18.80;1.00;;;;;;4991063;28;20240;-78
2021/06/10 00:08:32;;;;;;;3.97;2.13;;;18.80;1.00;;;;;;4995059;28;20195;-78
2021/06/10 00:11:00;;;;;;;3.20;2.90;;;18.70;1.00;;;;;;4992671;28;20627;-78
2021/06/10 00:13:27;;;;;;;4.80;2.70;;;18.70;1.00;;;;;;4996799;28;20217;-78
2021/06/10 00:15:53;;;;;;;3.23;2.93;;;18.70;1.00;;;;;;5008881;28;20236;-78
2021/06/10 00:18:20;;;;;;;2.93;2.63;;;18.80;99.90;;;;;;5010769;28;20552;-77
2021/06/10 00:20:47;;;;;;;2.80;2.30;;;18.80;1.00;;;;;;4994158;28;20252;-77
2021/06/10 00:23:15;;;;;;;3.90;3.13;;;18.80;1.00;;;;;;4998435;28;20688;-79
2021/06/10 00:25:42;;;;;;;3.60;3.30;;;18.80;99.90;;;;;;5009114;28;20229;-78
2021/06/10 00:28:08;;;;;;;3.10;2.67;;;18.70;1.00;;;;;;4995104;28;20624;-78
2021/06/10 00:30:36;;;;;;;4.70;2.90;;;18.70;99.90;;;;;;5006242;28;20232;-77
2021/06/10 00:33:04;;;;;;;3.50;3.10;;;18.60;99.90;;;;;;5003428;28;20358;-77
2021/06/10 00:35:32;;;;;;;4.50;3.20;;;18.50;99.90;;;;;;4998915;28;20243;-77
2021/06/10 00:38:00;;;;;;;3.57;2.97;;;18.40;1.00;;;;;;4998443;28;20276;-77
2021/06/10 00:40:29;;;;;;;4.83;3.40;;;18.30;1.00;;;;;;4992485;28;20683;-77
2021/06/10 00:42:57;;;;;;;3.60;3.30;;;18.20;1.00;;;;;;5013949;28;20287;-77
2021/06/10 00:45:25;;;;;;;4.57;3.40;;;18.10;99.90;;;;;;4995289;28;20268;-77
2021/06/10 00:47:53;;;;;;;3.87;3.20;;;18.00;1.00;;;;;;4994785;28;20277;-77
2021/06/10 00:50:38;;;;;;;5.03;3.17;;;18.10;1.00;;;;;;5011076;28;20209;-77
2021/06/10 00:53:06;;;;;;;4.07;3.07;;;18.00;99.90;;;;;;5012396;28;20246;-77
2021/06/10 00:55:33;;;;;;;4.13;3.73;;;18.00;99.90;;;;;;5010252;28;20236;-79
2021/06/10 00:58:02;;;;;;;5.50;3.83;;;18.00;1.00;;;;;;4995386;28;20226;-77
2021/06/10 01:00:29;;;;;;;3.73;3.30;;;18.10;1.00;;;;;;4993567;28;20237;-77
2021/06/10 01:02:56;;;;;;;4.27;3.60;;;18.10;1.00;;;;;;5011235;28;20248;-78
2021/06/10 01:05:23;;;;;;;5.80;3.43;;;17.90;99.90;;;;;;5002964;28;20287;-79
2021/06/10 01:08:03;;;;;;;3.80;3.40;;;18.00;1.00;;;;;;4994764;28;20275;-79
2021/06/10 01:10:52;;;;;;;4.03;3.63;;;18.00;1.00;;;;;;5016030;28;20367;-79
2021/06/10 01:13:29;;;;;;;5.07;3.53;;;18.00;1.00;;;;;;5013027;28;20297;-78
2021/06/10 01:15:59;;;;;;;4.53;3.70;;;18.00;1.00;;;;;;5007243;28;20362;-79
2021/06/10 01:18:27;;;;;;;5.43;3.70;;;18.00;1.00;;;;;;4988752;28;20715;-78
2021/06/10 01:20:55;;;;;;;3.70;3.40;;;18.00;99.90;;;;;;4990838;28;20253;-78
2021/06/10 01:24:04;;;;;;;6.57;3.60;;;17.90;1.00;;;;;;5020674;28;20298;-78
2021/06/10 01:26:39;;;;;;;3.93;3.40;;;17.90;1.00;;;;;;5032325;28;20593;-78
2021/06/10 01:29:10;;;;;;;5.93;3.53;;;17.90;1.00;;;;;;5018841;28;20294;-78
2021/06/10 01:31:39;;;;;;;5.00;3.60;;;17.90;99.90;;;;;;5014323;28;20221;-78
2021/06/10 01:34:07;;;;;;;3.43;3.03;;;17.90;1.00;;;;;;5000142;28;20637;-79
2021/06/10 01:36:39;;;;;;;6.37;3.83;;;17.90;24.50;;;;;;5014106;28;20259;-78
2021/06/10 01:39:09;;;;;;;4.70;3.47;;;17.80;1.00;;;;;;5011865;28;20236;-78
2021/06/10 01:41:38;;;;;;;4.00;3.30;;;17.80;99.90;;;;;;5009603;28;20292;-78
2021/06/10 01:44:07;;;;;;;3.73;3.20;;;17.60;1.00;;;;;;5014306;28;20212;-79
2021/06/10 01:46:35;;;;;;;4.87;3.60;;;17.70;1.00;;;;;;5013953;28;20210;-79
2021/06/10 01:49:05;;;;;;;3.40;3.07;;;17.60;99.90;;;;;;5003905;28;20737;-79
2021/06/10 01:51:33;;;;;;;6.17;3.50;;;17.70;1.00;;;;;;5011688;28;20716;-78
2021/06/10 01:54:05;;;;;;;3.80;3.40;;;17.60;99.90;;;;;;4989283;28;20198;-78
2021/06/10 01:56:35;;;;;;;4.07;3.63;;;17.60;99.90;;;;;;5014698;28;20231;-79
2021/06/10 01:59:03;;;;;;;5.47;3.40;;;17.60;1.00;;;;;;4997796;28;20283;-79
2021/06/10 02:01:32;;;;;;;4.67;3.30;;;17.60;1.00;;;;;;5020655;28;20213;-78
2021/06/10 02:04:01;;;;;;;4.43;3.90;;;17.50;1.00;;;;;;5013032;28;20252;-78
2021/06/10 02:06:30;;;;;;;6.30;4.20;;;17.40;99.90;;;;;;4998386;28;20202;-78
2021/06/10 02:08:58;;;;;;;4.43;3.63;;;17.50;1.00;;;;;;5012970;28;20204;-78
2021/06/10 02:11:25;;;;;;;7.80;3.50;;;17.50;99.90;;;;;;5033696;28;20572;-78
2021/06/10 02:13:53;;;;;;;5.07;3.43;;;17.50;1.00;;;;;;5012149;28;20255;-78
2021/06/10 02:16:22;;;;;;;4.57;3.40;;;17.30;99.90;;;;;;4995875;28;20209;-78
2021/06/10 02:18:49;;;;;;;3.57;3.10;;;17.50;81.30;;;;;;5015136;28;20215;-78
2021/06/10 02:21:17;;;;;;;4.90;3.50;;;17.50;1.00;;;;;;5030408;28;20301;-79
2021/06/10 02:23:45;;;;;;;4.57;3.30;;;17.50;99.90;;;;;;4999463;28;20204;-79
2021/06/10 02:26:14;;;;;;;4.30;3.90;;;17.50;99.90;;;;;;5006047;28;20228;-79
2021/06/10 02:28:41;;;;;;;3.80;3.23;;;17.50;99.90;;;;;;5014724;28;20263;-79
2021/06/10 02:31:10;;;;;;;4.50;3.50;;;17.50;1.00;;;;;;5002886;28;20596;-79
2021/06/10 02:33:39;;;;;;;3.97;3.33;;;17.50;1.00;;;;;;5022958;28;20210;-79
2021/06/10 02:36:12;;;;;;;4.90;3.50;;;17.60;1.00;;;;;;5005842;28;20219;-78
2021/06/10 02:38:59;;;;;;;3.73;3.43;;;17.40;1.00;;;;;;5001515;28;20222;-78
2021/06/10 02:41:28;;;;;;;3.80;3.50;;;17.50;1.00;;;;;;5014220;28;20348;-78
2021/06/10 02:43:57;;;;;;;4.83;3.90;;;17.30;99.90;;;;;;5025735;28;21075;-78
2021/06/10 02:46:27;;;;;;;5.37;3.30;;;17.40;99.90;;;;;;5039508;28;20199;-78
2021/06/10 02:48:55;;;;;;;4.70;4.10;;;17.40;99.90;;;;;;5014196;28;20288;-78
2021/06/10 02:51:27;;;;;;;6.13;4.07;;;17.40;1.00;;;;;;5018284;28;20212;-79
2021/06/10 02:53:54;;;;;;;5.17;3.43;;;17.30;1.00;;;;;;5025046;28;20256;-79
2021/06/10 02:56:22;;;;;;;3.53;3.23;;;17.20;1.00;;;;;;5018927;28;20223;-79
2021/06/10 02:58:51;;;;;;;4.97;3.43;;;17.10;1.00;;;;;;5001292;28;20198;-78
2021/06/10 03:01:19;;;;;;;4.77;3.37;;;17.10;99.90;;;;;;5003584;28;20242;-78
2021/06/10 03:03:47;;;;;;;4.00;3.70;;;17.10;99.90;;;;;;5001825;28;20218;-77
2021/06/10 03:06:16;;;;;;;4.27;3.83;;;17.10;1.00;;;;;;4997425;28;20265;-77
2021/06/10 03:08:46;;;;;;;4.10;3.53;;;17.20;1.00;;;;;;5012290;28;20239;-77
2021/06/10 03:11:16;;;;;;;3.70;3.40;;;17.20;1.00;;;;;;4990718;28;20230;-78
2021/06/10 03:13:45;;;;;;;5.07;3.90;;;17.10;1.00;;;;;;4991594;28;20284;-77
2021/06/10 03:16:13;;;;;;;4.40;3.80;;;17.00;20.40;;;;;;5002013;28;20214;-77
2021/06/10 03:18:40;;;;;;;4.70;3.67;;;17.00;99.90;;;;;;4992187;28;20232;-77
2021/06/10 03:21:08;;;;;;;4.67;3.40;;;17.00;1.00;;;;;;5017539;28;20738;-77
2021/06/10 03:23:35;;;;;;;5.90;4.00;;;16.90;99.90;;;;;;5003684;28;20278;-77
2021/06/10 03:26:03;;;;;;;5.70;3.83;;;17.00;1.00;;;;;;5010941;28;20236;-78
2021/06/10 03:28:32;;;;;;;4.53;3.90;;;17.00;1.00;;;;;;5020063;28;20240;-77
2021/06/10 03:30:59;;;;;;;4.97;3.90;;;17.10;1.00;;;;;;5018693;28;20233;-78
2021/06/10 03:33:27;;;;;;;3.57;3.23;;;16.80;1.00;;;;;;4996604;28;20229;-78
2021/06/10 03:35:55;;;;;;;8.10;3.67;;;16.70;1.00;;;;;;4996265;28;20303;-78
2021/06/10 03:38:25;;;;;;;5.67;3.90;;;16.60;50.60;;;;;;5009321;28;20224;-78
2021/06/10 03:40:55;;;;;;;5.13;3.63;;;16.60;1.00;;;;;;5012221;28;20212;-78
2021/06/10 03:43:22;;;;;;;6.90;4.40;;;16.60;1.00;;;;;;5013234;28;20638;-78
2021/06/10 03:45:51;;;;;;;6.50;4.40;;;16.40;1.00;;;;;;5012339;28;20208;-78
2021/06/10 03:48:18;;;;;;;6.60;4.77;;;16.40;1.00;;;;;;4987776;28;20201;-78
2021/06/10 03:50:46;;;;;;;5.53;4.90;;;16.30;51.50;;;;;;4988830;28;20200;-79
2021/06/10 03:53:13;;;;;;;6.40;5.03;;;16.30;1.00;;;;;;4995617;28;20640;-78
2021/06/10 03:55:41;;;;;;;5.43;4.33;;;16.30;1.00;;;;;;5008326;28;20581;-78
2021/06/10 03:58:08;;;;;;;6.40;5.40;;;16.30;1.00;;;;;;5012934;28;20207;-78
2021/06/10 04:00:35;;;;;;;7.00;5.40;;;16.40;1.00;;;;;;4993401;28;20324;-78
2021/06/10 04:03:02;;;;;;;5.73;5.13;;;16.40;1.00;;;;;;4991388;28;20576;-78
2021/06/10 04:05:31;;;;;;;5.80;4.93;;;16.40;1.00;;;;;;5012042;28;20277;-78
2021/06/10 04:07:58;;;;;;;7.27;6.10;;;16.20;1.00;;;;;;4997387;28;20195;-78
2021/06/10 04:10:26;;;;;;;7.27;5.80;;;16.10;1.00;;;;;;4996778;28;20236;-78
2021/06/10 04:12:53;;;;;;;11.20;7.13;;;16.00;1.00;;;;;;5013060;28;20319;-79
2021/06/10 04:15:20;;;;;;;9.07;7.03;;;16.10;1.00;;;;;;4990957;28;20208;-78
2021/06/10 04:17:47;;;;;;;9.97;7.70;;;16.00;1.00;;;;;;5016544;28;20283;-78
2021/06/10 04:20:15;;;;;;;8.40;7.53;;;16.00;1.00;;;;;;4981668;28;20544;-79
2021/06/10 04:22:42;;;;;;;9.40;7.80;;;15.90;1.00;;;;;;5012783;28;20243;-79
2021/06/10 04:25:10;;;;;;;9.07;8.10;;;15.90;1.00;;;;;;4999005;28;20234;-79
2021/06/10 04:27:36;;;;;;;9.70;7.40;;;16.00;1.00;;;;;;5034192;28;20230;-79
2021/06/10 04:30:09;;;;;;;12.47;7.63;;;16.10;1.00;;;;;;5016669;28;20203;-79
2021/06/10 04:32:36;;;;;;;8.57;7.57;;;16.10;1.00;;;;;;5007228;28;20254;-79
2021/06/10 04:35:05;;;;;;;10.37;8.27;;;16.10;1.00;;;;;;5001942;28;20604;-78
2021/06/10 04:37:32;;;;;;;9.40;8.10;;;16.10;1.00;;;;;;5027515;28;20223;-78
2021/06/10 04:39:59;;;;;;;10.30;8.33;;;16.20;7.40;;;;;;5019603;28;20231;-78
2021/06/10 04:42:26;;;;;;;9.53;8.03;;;16.10;1.00;;;;;;4998090;28;21199;-79
2021/06/10 04:44:53;;;;;;;11.23;8.40;;;16.20;1.00;;;;;;5018544;28;20229;-78
2021/06/10 04:47:20;;;;;;;10.70;8.63;;;16.20;99.90;;;;;;5020674;28;20199;-78
2021/06/10 04:49:47;;;;;;;10.17;8.70;;;16.40;99.90;;;;;;5021463;28;20227;-78
2021/06/10 04:52:14;;;;;;;11.40;8.87;;;16.60;99.90;;;;;;5015343;28;20206;-78
2021/06/10 04:54:41;;;;;;;11.67;9.33;;;16.70;99.90;;;;;;5004193;28;20247;-78
2021/06/10 04:57:08;;;;;;;10.97;8.57;;;16.80;99.90;;;;;;4990174;28;20648;-79
2021/06/10 04:59:35;;;;;;;9.57;8.33;;;16.70;99.90;;;;;;5001954;28;20242;-79
2021/06/10 05:02:04;;;;;;;10.30;9.23;;;16.80;99.90;;;;;;5003228;28;20247;-79
2021/06/10 05:04:32;;;;;;;11.80;9.33;;;17.00;99.90;;;;;;4995607;28;20219;-78
2021/06/10 05:06:59;;;;;;;11.93;8.73;;;17.10;99.90;;;;;;5033367;28;20228;-78
2021/06/10 05:09:26;;;;;;;10.67;9.00;;;17.40;1.00;;;;;;5015733;28;20277;-78
2021/06/10 05:11:53;;;;;;;11.70;8.93;;;17.60;1.00;;;;;;4993229;28;20212;-77
2021/06/10 05:14:20;;;;;;;9.80;8.70;;;17.80;53.70;;;;;;4995972;28;20658;-78
2021/06/10 05:16:49;;;;;;;10.93;8.80;;;17.90;88.20;;;;;;5020333;28;20220;-78
2021/06/10 05:19:16;;;;;;;9.83;8.83;;;18.10;80.80;;;;;;5019301;28;20234;-78
2021/06/10 05:21:43;;;;;;;11.47;9.80;;;18.10;1.00;;;;;;4999407;28;20227;-78
2021/06/10 05:24:13;;;;;;;12.63;9.43;;;18.00;1.00;;;;;;5004005;28;20806;-80
2021/06/10 05:26:41;;;;;;;11.30;9.20;;;18.10;1.00;;;;;;4997615;28;20257;-79
2021/06/10 05:29:08;;;;;;;10.63;8.53;;;18.10;1.00;;;;;;5003086;28;20299;-78
2021/06/10 05:31:35;;;;;;;10.33;8.57;;;17.90;99.90;;;;;;5031499;28;20243;-78
2021/06/10 05:34:02;;;;;;;10.50;8.83;;;18.20;99.90;;;;;;5000681;28;20201;-77
2021/06/10 05:36:29;;;;;;;11.80;8.67;;;18.30;1.00;;;;;;5019720;28;20268;-77
2021/06/10 05:38:56;;;;;;;10.57;8.93;;;18.40;99.90;;;;;;5010962;28;20258;-79
2021/06/10 05:41:24;;;;;;;9.70;8.73;;;18.50;1.00;;;;;;4987936;28;20307;-78
2021/06/10 05:43:51;;;;;;;10.10;9.00;;;18.50;1.00;;;;;;4977334;28;20240;-77
2021/06/10 05:46:20;;;;;;;10.97;9.10;;;18.70;1.00;;;;;;5015589;28;20224;-77
2021/06/10 05:48:47;;;;;;;9.20;8.23;;;18.70;1.00;;;;;;4993947;28;20213;-77
2021/06/10 05:51:14;;;;;;;9.17;8.07;;;19.00;1.00;;;;;;5009953;28;20252;-78
2021/06/10 05:53:41;;;;;;;10.70;7.63;;;19.20;1.00;;;;;;4996880;28;20297;-77
2021/06/10 05:56:08;;;;;;;9.67;7.77;;;19.30;99.90;;;;;;5013618;28;20274;-78
2021/06/10 05:58:34;;;;;;;9.23;7.10;;;19.30;1.00;;;;;;5015811;28;20231;-77
2021/06/10 06:01:01;;;;;;;8.83;7.07;;;19.20;1.00;;;;;;5015372;28;20243;-78
2021/06/10 06:03:31;;;;;;;10.57;7.23;;;19.10;99.90;;;;;;5014077;28;20196;-77
2021/06/10 06:05:59;;;;;;;10.03;7.33;;;19.30;99.90;;;;;;4995941;28;20262;-78
2021/06/10 06:08:26;;;;;;;12.00;7.10;;;19.40;1.00;;;;;;5015219;28;20303;-78
2021/06/10 06:10:53;;;;;;;7.30;6.60;;;19.60;1.00;;;;;;5013557;28;20931;-77
2021/06/10 06:13:32;;;;;;;8.17;7.30;;;19.80;1.00;;;;;;4991465;28;20547;-76
2021/06/10 06:16:05;;;;;;;6.80;5.80;;;20.00;99.90;;;;;;5012322;28;20244;-77
2021/06/10 06:18:35;;;;;;;7.87;6.93;;;19.90;99.90;;;;;;5008249;28;20208;-76
2021/06/10 06:21:02;;;;;;;7.10;5.60;;;19.90;99.90;;;;;;5012323;28;20203;-75
2021/06/10 06:23:31;;;;;;;6.73;6.03;;;20.10;1.00;;;;;;5015834;28;20625;-77
2021/06/10 06:25:59;;;;;;;12.60;6.10;;;20.40;1.00;;;;;;4992188;28;20267;-75
2021/06/10 06:28:26;;;;;;;6.60;5.90;;;20.50;1.00;;;;;;5011738;28;20246;-76
2021/06/10 06:30:53;;;;;;;4.87;4.37;;;20.60;99.90;;;;;;4995585;28;20355;-76
2021/06/10 06:33:20;;;;;;;5.23;4.73;;;20.70;1.00;;;;;;4996402;28;20284;-75
2021/06/10 06:35:48;;;;;;;5.33;3.10;;;20.70;1.00;;;;;;5005156;28;20982;-76
2021/06/10 06:38:15;;;;;;;4.43;4.03;;;20.70;1.00;;;;;;4995025;28;20208;-75
2021/06/10 06:40:42;;;;;;;3.60;3.20;;;20.90;1.00;;;;;;5008855;28;20263;-75
2021/06/10 06:43:11;;;;;;;3.50;3.20;;;21.00;99.90;;;;;;4989624;28;20762;-77
2021/06/10 06:45:38;;;;;;;3.67;3.30;;;21.20;1.00;;;;;;5013030;28;20272;-75
2021/06/10 06:48:06;;;;;;;4.70;3.83;;;21.30;1.00;;;;;;5011631;28;20197;-77
2021/06/10 06:50:33;;;;;;;6.07;3.03;;;21.80;1.00;;;;;;5004477;28;20264;-76
2021/06/10 06:53:00;;;;;;;6.03;3.43;;;21.90;99.90;;;;;;5008958;28;20223;-76
2021/06/10 06:55:27;;;;;;;3.60;3.30;;;22.10;99.90;;;;;;4984521;28;20212;-76
2021/06/10 06:57:54;;;;;;;3.50;2.80;;;22.30;99.90;;;;;;4968299;28;20624;-76
2021/06/10 07:00:22;;;;;;;3.87;3.10;;;22.10;99.90;;;;;;5015386;28;20205;-76
2021/06/10 07:02:51;;;;;;;4.03;2.80;;;22.00;99.90;;;;;;5007313;28;20244;-76
2021/06/10 07:05:18;;;;;;;4.23;2.60;;;22.30;99.90;;;;;;4992082;28;20631;-76
2021/06/10 07:07:45;;;;;;;3.30;2.60;;;22.70;99.90;;;;;;4988812;28;20225;-76
2021/06/10 07:10:12;;;;;;;3.57;2.90;;;22.90;1.00;;;;;;4993628;28;20721;-77
2021/06/10 07:12:39;;;;;;;3.23;2.50;;;22.80;99.90;;;;;;5000150;28;20678;-76
2021/06/10 07:15:06;;;;;;;3.40;3.10;;;23.20;1.00;;;;;;5006316;28;20256;-78
2021/06/10 07:17:33;;;;;;;3.53;3.23;;;23.50;99.90;;;;;;5012601;28;20235;-78
2021/06/10 07:20:01;;;;;;;4.37;3.33;;;23.30;99.90;;;;;;5010371;28;20217;-77
2021/06/10 07:22:32;;;;;;;4.87;3.70;;;23.40;1.00;;;;;;5012813;28;20221;-77
2021/06/10 07:25:02;;;;;;;4.77;3.37;;;23.40;99.90;;;;;;5010955;28;20257;-77
2021/06/10 07:27:29;;;;;;;4.50;3.50;;;23.50;1.00;;;;;;5015696;28;20192;-77
2021/06/10 07:29:58;;;;;;;5.50;4.40;;;23.70;99.90;;;;;;5015768;28;20199;-77
2021/06/10 07:32:26;;;;;;;4.65;4.13;;;23.70;1.00;;;;;;5015347;28;20483;-79
2021/06/10 07:34:53;;;;;;;4.97;3.97;;;24.10;1.00;;;;;;5012289;28;20299;-79
2021/06/10 07:37:20;;;;;;;7.07;5.17;;;25.00;99.90;;;;;;5012115;28;20256;-78
2021/06/10 07:39:47;;;;;;;4.90;4.40;;;25.70;99.90;;;;;;5010890;28;20549;-78
2021/06/10 07:42:13;;;;;;;4.07;2.60;;;25.60;99.90;;;;;;5012946;28;20227;-77
2021/06/10 07:44:40;;;;;;;11.13;5.63;;;26.40;99.90;;;;;;5019580;28;20268;-78
2021/06/10 07:47:07;;;;;;;10.03;5.97;;;26.40;99.90;;;;;;4992398;28;20318;-78
2021/06/10 07:49:34;;;;;;;7.70;5.87;;;26.10;99.90;;;;;;4995395;28;20202;-77
2021/06/10 07:52:03;;;;;;;6.93;5.00;;;26.00;99.90;;;;;;5014439;28;20269;-78
2021/06/10 07:54:31;;;;;;;6.23;4.67;;;26.60;99.90;;;;;;4991443;28;20206;-79
2021/06/10 07:56:58;;;;;;;5.40;4.90;;;26.10;99.90;;;;;;5010077;28;20340;-78
2021/06/10 07:59:26;;;;;;;5.13;4.10;;;26.20;99.90;;;;;;5009895;28;20201;-78
2021/06/10 08:01:56;;;;;;;5.13;4.53;;;26.30;99.90;;;;;;4998727;28;20224;-78
2021/06/10 08:04:23;;;;;;;4.33;3.93;;;26.60;99.90;;;;;;4996779;28;20212;-77
2021/06/10 08:06:50;;;;;;;6.20;5.33;;;27.10;99.90;;;;;;4985597;28;20232;-77
2021/06/10 08:09:17;;;;;;;7.13;4.83;;;27.00;99.90;;;;;;4996319;28;20260;-77
2021/06/10 08:11:44;;;;;;;4.60;4.20;;;27.10;99.90;;;;;;5010949;28;20236;-76
2021/06/10 08:14:12;;;;;;;4.68;4.25;;;27.50;99.90;;;;;;5011116;28;20201;-76
2021/06/10 08:16:39;;;;;;;5.77;4.50;;;28.10;99.90;;;;;;5009324;28;20229;-77
2021/06/10 08:19:06;;;;;;;5.90;5.33;;;27.20;99.90;;;;;;5013524;28;20249;-77
2021/06/10 08:21:33;;;;;;;5.63;4.90;;;26.60;99.90;;;;;;5001375;28;20201;-79
2021/06/10 08:24:00;;;;;;;6.10;5.50;;;27.00;99.90;;;;;;5014222;28;20620;-78
2021/06/10 08:26:27;;;;;;;5.97;5.37;;;26.80;99.90;;;;;;5028998;28;20559;-78
2021/06/10 08:28:54;;;;;;;7.60;4.97;;;26.80;99.90;;;;;;5012996;28;20259;-77
2021/06/10 08:31:21;;;;;;;5.68;5.13;;;27.00;99.90;;;;;;5011431;28;20239;-78
2021/06/10 08:33:48;;;;;;;8.40;5.67;;;27.00;99.90;;;;;;5013727;28;20300;-77
2021/06/10 08:36:18;;;;;;;6.15;5.47;;;27.00;99.90;;;;;;5015723;28;20686;-75
2021/06/10 08:38:47;;;;;;;8.50;6.03;;;27.40;99.90;;;;;;5032951;28;20197;-77
2021/06/10 08:41:14;;;;;;;9.87;5.70;;;27.30;99.90;;;;;;5014073;28;20226;-77
2021/06/10 08:43:45;;;;;;;7.97;7.00;;;27.50;99.90;;;;;;5004240;28;20263;-78
2021/06/10 08:46:13;;;;;;;4.33;3.93;;;26.70;99.90;;;;;;5031851;28;20267;-77
2021/06/10 08:48:43;;;;;;;7.90;6.22;;;27.90;99.90;;;;;;5012964;28;20198;-78
2021/06/10 08:51:13;;;;;;;7.60;6.03;;;27.80;99.90;;;;;;5029580;28;20243;-79
2021/06/10 08:53:40;;;;;;;7.03;5.75;;;27.90;99.90;;;;;;5028425;28;20205;-77
2021/06/10 08:56:07;;;;;;;8.32;6.13;;;28.20;99.90;;;;;;5031896;28;20197;-78
2021/06/10 08:58:34;;;;;;;6.90;6.20;;;27.80;99.90;;;;;;5033613;28;20212;-77
2021/06/10 09:01:02;;;;;;;6.55;5.22;;;27.50;99.90;;;;;;5024985;28;20802;-77
2021/06/10 09:03:32;;;;;;;9.47;6.00;;;29.00;99.90;;;;;;5021018;28;20641;-78
2021/06/10 09:06:17;;;;;;;6.25;5.53;;;27.90;99.90;;;;;;5019891;28;20613;-77
2021/06/10 09:08:48;;;;;;;8.77;6.82;;;28.20;99.90;;;;;;5028154;28;20227;-78
2021/06/10 09:11:22;;;;;;;8.00;5.83;;;27.80;99.90;;;;;;5011454;28;20227;-76
2021/06/10 09:13:58;;;;;;;7.10;5.57;;;28.20;99.90;;;;;;5010117;28;20265;-77
2021/06/10 09:16:34;;;;;;;10.07;7.47;;;29.00;99.90;;;;;;5012033;28;20192;-77
2021/06/10 09:19:06;;;;;;;7.73;5.70;;;28.40;99.90;;;;;;5026358;28;20246;-76
2021/06/10 09:21:39;;;;;;;7.97;5.90;;;28.50;99.90;;;;;;5026312;28;20192;-77
2021/06/10 09:24:28;;;;;;;6.90;6.20;;;28.30;99.90;;;;;;5026900;28;20247;-77
2021/06/10 09:26:59;;;;;;;6.67;4.63;;;27.70;99.90;;;;;;5028704;28;20255;-77
2021/06/10 09:29:50;;;;;;;6.87;4.03;;;27.20;99.90;;;;;;5013071;28;20253;-76
2021/06/10 09:32:25;;;;;;;5.00;4.50;;;28.00;99.90;;;;;;5009938;28;20229;-77
2021/06/10 09:35:08;;;;;;;7.27;5.60;;;27.90;99.90;;;;;;5011498;28;20238;-77
2021/06/10 09:37:38;;;;;;;5.33;3.97;;;27.40;99.90;;;;;;5026676;28;20208;-77
2021/06/10 09:40:11;;;;;;;6.40;5.50;;;28.40;99.90;;;;;;5000651;28;20228;-77
2021/06/10 09:42:40;;;;;;;7.85;6.00;;;28.10;99.90;;;;;;5011448;28;20251;-77
2021/06/10 09:45:11;;;;;;;7.27;6.10;;;27.60;99.90;;;;;;5014161;28;20307;-78
2021/06/10 09:47:45;;;;;;;5.73;5.20;;;27.30;99.90;;;;;;5020272;28;20292;-77
2021/06/10 09:50:19;;;;;;;4.17;3.87;;;27.40;99.90;;;;;;5010478;28;20267;-76
2021/06/10 09:52:49;;;;;;;7.53;5.23;;;27.40;99.90;;;;;;5016765;28;20261;-77
2021/06/10 09:55:59;;;;;;;6.13;4.30;;;27.50;99.90;;;;;;5027697;28;20239;-76
2021/06/10 09:58:41;;;;;;;8.57;5.13;;;27.50;99.90;;;;;;5032164;28;20208;-78
2021/06/10 10:01:14;;;;;;;8.77;6.20;;;27.70;99.90;;;;;;4996539;28;20244;-76
2021/06/10 10:03:44;;;;;;;6.27;4.87;;;27.90;99.90;;;;;;5025645;28;20220;-76
2021/06/10 10:09:00;;;;;;;7.50;5.23;;;27.40;99.90;;;;;;5025936;28;20207;-77
2021/06/10 10:11:30;;;;;;;6.77;6.07;;;27.40;99.90;;;;;;5030367;28;20828;-78
2021/06/10 10:13:58;;;;;;;8.57;6.87;;;27.30;99.90;;;;;;5028651;28;20323;-77
2021/06/10 10:16:31;;;;;;;7.73;5.20;;;26.80;99.90;;;;;;5009682;28;20235;-78
2021/06/10 10:19:02;;;;;;;9.13;5.97;;;26.50;99.90;;;;;;5020617;28;20291;-77
2021/06/10 10:21:32;;;;;;;9.10;6.47;;;26.80;99.90;;;;;;5031768;28;20239;-77
2021/06/10 10:24:05;;;;;;;7.63;6.00;;;26.40;99.90;;;;;;5023697;28;20307;-77
2021/06/10 10:26:33;;;;;;;7.00;4.97;;;26.70;99.90;;;;;;5006292;28;20374;-76
2021/06/10 10:29:02;;;;;;;5.93;5.10;;;27.10;99.90;;;;;;4994931;28;20656;-77
2021/06/10 10:31:30;;;;;;;5.43;4.93;;;27.00;99.90;;;;;;5003067;28;20240;-77
2021/06/10 10:33:57;;;;;;;7.47;4.67;;;26.80;99.90;;;;;;5008197;28;20640;-76
2021/06/10 10:36:33;;;;;;;8.87;5.27;;;26.80;99.90;;;;;;5008091;28;20200;-78
2021/06/10 10:39:05;;;;;;;5.10;3.67;;;26.90;99.90;;;;;;5009536;28;20199;-78
2021/06/10 10:41:46;;;;;;;3.47;3.17;;;27.10;99.90;;;;;;5008062;28;20225;-76
2021/06/10 10:44:27;;;;;;;5.37;3.97;;;27.50;99.90;;;;;;5011375;28;20355;-78
2021/06/10 10:47:00;;;;;;;6.20;3.63;;;27.70;99.90;;;;;;5010762;28;20258;-78
2021/06/10 10:49:29;;;;;;;4.30;3.50;;;27.60;99.90;;;;;;5006910;28;20236;-78
2021/06/10 10:52:28;;;;;;;3.50;2.83;;;28.10;99.90;;;;;;5007541;28;20255;-78
2021/06/10 10:55:13;;;;;;;7.30;3.70;;;28.10;99.90;;;;;;5012726;28;20550;-76
2021/06/10 10:57:41;;;;;;;5.57;3.60;;;28.50;99.90;;;;;;5007044;28;20197;-76
2021/06/10 11:00:13;;;;;;;5.07;4.00;;;28.20;99.90;;;;;;5014182;28;20718;-78
2021/06/10 11:02:50;;;;;;;4.80;4.13;;;28.60;99.90;;;;;;5006649;28;20586;-79
2021/06/10 11:05:28;;;;;;;6.17;4.40;;;28.20;94.40;;;;;;5016164;28;20292;-77
2021/06/10 11:07:55;;;;;;;5.53;3.33;;;28.90;95.60;;;;;;5012661;28;20216;-77
2021/06/10 11:10:39;;;;;;;6.73;4.47;;;30.00;99.90;;;;;;5018433;28;20201;-77
2021/06/10 11:13:20;;;;;;;5.33;4.00;;;29.90;97.90;;;;;;5018591;28;20196;-78
2021/06/10 11:15:52;;;;;;;5.77;5.17;;;29.30;95.60;;;;;;5008444;28;20889;-77
2021/06/10 11:18:38;;;;;;;4.87;4.00;;;29.80;94.00;;;;;;5013861;28;20209;-79
2021/06/10 11:21:05;;;;;;;5.97;4.87;;;30.60;95.10;;;;;;5011624;28;20205;-77
2021/06/10 11:23:32;;;;;;;5.07;4.50;;;31.00;94.50;;;;;;5012064;28;20319;-77
2021/06/10 11:26:03;;;;;;;6.20;5.33;;;30.70;91.50;;;;;;5013711;28;20632;-78
2021/06/10 11:28:36;;;;;;;4.53;4.10;;;30.50;80.50;;;;;;5006866;28;20260;-78
2021/06/10 11:31:18;;;;;;;5.72;5.13;;;30.30;83.00;;;;;;5010907;28;20702;-78
2021/06/10 11:33:45;;;;;;;5.63;4.70;;;30.10;83.10;;;;;;5013058;28;20340;-78
2021/06/10 11:36:12;;;;;;;6.97;5.50;;;30.60;88.80;;;;;;5012702;28;20276;-78
2021/06/10 11:38:52;;;;;;;6.88;5.47;;;30.00;81.90;;;;;;5009996;28;20232;-78
2021/06/10 11:41:26;;;;;;;4.38;3.95;;;30.60;77.20;;;;;;5011533;28;20231;-77
2021/06/10 11:43:58;;;;;;;4.70;4.10;;;31.60;88.10;;;;;;5011530;28;20305;-78
2021/06/10 11:46:30;;;;;;;4.45;3.45;;;31.20;81.40;;;;;;4989192;28;20205;-80
2021/06/10 11:48:57;;;;;;;6.10;4.85;;;32.10;86.20;;;;;;5014955;28;20274;-78
2021/06/10 11:51:34;;;;;;;6.10;4.53;;;32.30;81.40;;;;;;5011414;28;20202;-79
2021/06/10 11:54:07;;;;;;;6.60;4.90;;;32.20;78.70;;;;;;5003258;28;20231;-78
2021/06/10 11:56:34;;;;;;;4.85;4.32;;;30.40;65.40;;;;;;5006460;28;20229;-78
2021/06/10 11:59:39;;;;;;;6.72;3.85;;;30.30;64.10;;;;;;5016978;28;20278;-79
2021/06/10 12:02:10;;;;;;;6.43;4.05;;;32.00;69.70;;;;;;4976183;28;20217;-79
2021/06/10 12:04:40;;;;;;;5.15;4.00;;;30.30;57.50;;;;;;5001020;28;20350;-79
2021/06/10 12:07:08;;;;;;;4.57;3.70;;;30.60;62.80;;;;;;4995969;28;20198;-79
2021/06/10 12:09:48;;;;;;;4.80;3.97;;;29.90;56.80;;;;;;4991669;28;20229;-79
2021/06/10 12:12:29;;;;;;;6.85;4.40;;;30.30;56.90;;;;;;4978072;28;20198;-79
2021/06/10 12:14:56;;;;;;;4.40;4.00;;;30.10;56.60;;;;;;4991139;28;20206;-78
2021/06/10 12:17:23;;;;;;;6.90;3.83;;;30.90;68.20;;;;;;4989107;28;20572;-79
2021/06/10 12:20:21;;;;;;;4.82;4.03;;;31.30;67.70;;;;;;4959624;28;20210;-78
2021/06/10 12:22:59;;;;;;;6.82;3.60;;;30.60;75.00;;;;;;4974989;28;20295;-80
2021/06/10 12:25:31;;;;;;;4.28;3.88;;;30.10;60.30;;;;;;4961002;28;20242;-78
2021/06/10 12:28:00;;;;;;;3.90;3.13;;;30.50;60.50;;;;;;4957499;28;20287;-78
2021/06/10 12:30:32;;;;;;;3.45;3.10;;;30.80;63.70;;;;;;4989661;28;20276;-78
2021/06/10 12:33:16;;;;;;;4.20;3.03;;;30.80;66.90;;;;;;4986978;28;20206;-77
2021/06/10 12:35:45;;;;;;;5.45;4.10;;;30.80;65.50;;;;;;4997058;28;20232;-78
2021/06/10 12:38:13;;;;;;;4.40;3.97;;;30.40;59.60;;;;;;4991269;28;20764;-77
2021/06/10 12:40:43;;;;;;;3.83;2.85;;;29.90;55.60;;;;;;5014987;28;20281;-79
2021/06/10 12:43:13;;;;;;;2.90;2.70;;;31.00;63.20;;;;;;5015855;28;20213;-79
2021/06/10 12:45:40;;;;;;;3.75;2.85;;;31.40;64.30;;;;;;5010401;28;20197;-78
2021/06/10 12:48:40;;;;;;;4.03;2.95;;;31.60;67.10;;;;;;5012768;28;20306;-81
2021/06/10 12:51:17;;;;;;;4.68;3.17;;;32.10;64.20;;;;;;4990033;28;20287;-82
2021/06/10 12:54:03;;;;;;;4.10;3.60;;;31.90;62.80;;;;;;5030617;28;20228;-80
2021/06/10 12:56:40;;;;;;;4.57;3.08;;;30.60;48.80;;;;;;5012752;28;20295;-83
2021/06/10 12:59:08;;;;;;;6.43;3.47;;;30.10;53.10;;;;;;5014839;28;20259;-81
2021/06/10 13:01:36;;;;;;;3.75;2.92;;;30.20;50.00;;;;;;5013520;28;20631;-78
2021/06/10 13:04:03;;;;;;;4.45;2.83;;;29.90;52.70;;;;;;5012601;28;20237;-80
2021/06/10 13:06:30;;;;;;;3.50;3.07;;;29.70;51.60;;;;;;5011540;28;20255;-78
2021/06/10 13:08:58;;;;;;;3.00;2.65;;;29.30;50.80;;;;;;5009322;28;20193;-78